sensor_id;sensor_type;location;lat;lon;timestamp;pressure;altitude;pressure_sealevel;temperature;humidity
49451;BME280;35336;48.400;10.886;2024-01-11T00:00:02;97134.78;;;-5.23;92.73
49451;BME280;35336;48.400;10.886;2024-01-11T00:00:18;97130.34;;;-5.21;92.69
49451;BME280;35336;48.400;10.886;2024-01-11T00:00:33;97116.31;;;-5.34;92.74
49451;BME280;35336;48.400;10.886;2024-01-11T00:00:48;97137.38;;;-5.23;92.71
49451;BME280;35336;48.400;10.886;2024-01-11T00:01:04;97127.75;;;-5.21;92.59
49451;BME280;35336;48.400;10.886;2024-01-11T00:01:19;97114.44;;;-5.32;92.62
49451;BME280;35336;48.400;10.886;2024-01-11T00:01:34;97126.81;;;-5.20;92.77
49451;BME280;35336;48.400;10.886;2024-01-11T00:01:49;97131.13;;;-5.19;92.81
49451;BME280;35336;48.400;10.886;2024-01-11T00:02:05;97122.69;;;-5.24;92.92
49451;BME280;35336;48.400;10.886;2024-01-11T00:02:20;97130.94;;;-5.16;92.94
49451;BME280;35336;48.400;10.886;2024-01-11T00:02:35;97131.72;;;-5.14;92.96
49451;BME280;35336;48.400;10.886;2024-01-11T00:02:51;97128.28;;;-5.14;92.93
49451;BME280;35336;48.400;10.886;2024-01-11T00:03:06;97114.66;;;-5.19;92.84
49451;BME280;35336;48.400;10.886;2024-01-11T00:03:21;97134.31;;;-5.14;92.72
49451;BME280;35336;48.400;10.886;2024-01-11T00:03:37;97128.19;;;-5.13;92.57
49451;BME280;35336;48.400;10.886;2024-01-11T00:03:52;97113.06;;;-5.22;92.64
49451;BME280;35336;48.400;10.886;2024-01-11T00:04:07;97128.28;;;-5.14;92.61
49451;BME280;35336;48.400;10.886;2024-01-11T00:04:22;97123.06;;;-5.14;92.46
49451;BME280;35336;48.400;10.886;2024-01-11T00:04:40;97101.38;;;-5.31;92.55
49451;BME280;35336;48.400;10.886;2024-01-11T00:04:55;97120.38;;;-5.13;92.61
49451;BME280;35336;48.400;10.886;2024-01-11T00:05:11;97114.59;;;-5.18;92.63
49451;BME280;35336;48.400;10.886;2024-01-11T00:05:26;97119.38;;;-5.10;92.63
49451;BME280;35336;48.400;10.886;2024-01-11T00:05:41;97124.44;;;-5.07;92.58
49451;BME280;35336;48.400;10.886;2024-01-11T00:05:57;97126.19;;;-5.07;92.54
49451;BME280;35336;48.400;10.886;2024-01-11T00:06:12;97119.16;;;-5.05;92.47
49451;BME280;35336;48.400;10.886;2024-01-11T00:06:30;97131.28;;;-5.06;92.48
49451;BME280;35336;48.400;10.886;2024-01-11T00:06:45;97122.66;;;-5.06;92.42
49451;BME280;35336;48.400;10.886;2024-01-11T00:07:03;97116.53;;;-5.05;92.55
49451;BME280;35336;48.400;10.886;2024-01-11T00:07:20;97124.34;;;-5.05;92.44
49451;BME280;35336;48.400;10.886;2024-01-11T00:07:35;97115.63;;;-5.04;92.45
49451;BME280;35336;48.400;10.886;2024-01-11T00:07:51;97115.63;;;-5.04;92.69
49451;BME280;35336;48.400;10.886;2024-01-11T00:08:06;97118.91;;;-5.01;92.44
49451;BME280;35336;48.400;10.886;2024-01-11T00:08:21;97115.41;;;-5.00;92.68
49451;BME280;35336;48.400;10.886;2024-01-11T00:08:41;97118.00;;;-5.00;92.38
49451;BME280;35336;48.400;10.886;2024-01-11T00:08:56;97095.22;;;-5.12;92.28
49451;BME280;35336;48.400;10.886;2024-01-11T00:09:12;97115.44;;;-5.01;92.06
49451;BME280;35336;48.400;10.886;2024-01-11T00:09:27;97116.38;;;-5.02;91.93
49451;BME280;35336;48.400;10.886;2024-01-11T00:09:42;97124.94;;;-5.00;91.96
49451;BME280;35336;48.400;10.886;2024-01-11T00:10:00;97117.22;;;-5.02;92.10
49451;BME280;35336;48.400;10.886;2024-01-11T00:10:16;97098.66;;;-5.12;91.87
49451;BME280;35336;48.400;10.886;2024-01-11T00:10:31;97115.44;;;-5.01;91.94
49451;BME280;35336;48.400;10.886;2024-01-11T00:10:46;97111.34;;;-5.05;91.98
49451;BME280;35336;48.400;10.886;2024-01-11T00:11:02;97086.91;;;-5.19;92.06
49451;BME280;35336;48.400;10.886;2024-01-11T00:11:17;97105.28;;;-5.06;92.33
49451;BME280;35336;48.400;10.886;2024-01-11T00:11:34;97115.41;;;-5.00;92.24
49451;BME280;35336;48.400;10.886;2024-01-11T00:11:49;97116.22;;;-4.99;92.17
49451;BME280;35336;48.400;10.886;2024-01-11T00:12:05;97117.13;;;-5.00;92.14
49451;BME280;35336;48.400;10.886;2024-01-11T00:12:20;97091.03;;;-5.15;92.15
49451;BME280;35336;48.400;10.886;2024-01-11T00:12:35;97111.09;;;-5.01;92.05
49451;BME280;35336;48.400;10.886;2024-01-11T00:12:51;97111.34;;;-5.05;91.90
49451;BME280;35336;48.400;10.886;2024-01-11T00:13:06;97107.97;;;-5.07;91.88
49451;BME280;35336;48.400;10.886;2024-01-11T00:13:21;97113.19;;;-5.07;91.81
49451;BME280;35336;48.400;10.886;2024-01-11T00:13:37;97101.75;;;-5.21;91.69
49451;BME280;35336;48.400;10.886;2024-01-11T00:13:54;97114.31;;;-5.13;92.01
49451;BME280;35336;48.400;10.886;2024-01-11T00:14:12;97102.34;;;-5.16;92.05
49451;BME280;35336;48.400;10.886;2024-01-11T00:14:27;97118.47;;;-5.09;92.15
49451;BME280;35336;48.400;10.886;2024-01-11T00:14:45;97114.09;;;-5.08;92.12
49451;BME280;35336;48.400;10.886;2024-01-11T00:15:00;97119.47;;;-5.12;91.98
49451;BME280;35336;48.400;10.886;2024-01-11T00:15:15;97116.00;;;-5.12;91.92
49451;BME280;35336;48.400;10.886;2024-01-11T00:15:33;97116.88;;;-5.12;92.04
49451;BME280;35336;48.400;10.886;2024-01-11T00:15:51;97120.38;;;-5.13;91.96
49451;BME280;35336;48.400;10.886;2024-01-11T00:16:07;97121.06;;;-5.09;91.95
49451;BME280;35336;48.400;10.886;2024-01-11T00:16:24;97121.91;;;-5.08;91.96
49451;BME280;35336;48.400;10.886;2024-01-11T00:16:41;97096.69;;;-5.24;92.05
49451;BME280;35336;48.400;10.886;2024-01-11T00:16:56;97095.88;;;-5.24;91.88
49451;BME280;35336;48.400;10.886;2024-01-11T00:17:11;97109.22;;;-5.15;91.84
49451;BME280;35336;48.400;10.886;2024-01-11T00:17:27;97105.63;;;-5.12;91.87
49451;BME280;35336;48.400;10.886;2024-01-11T00:17:42;97123.50;;;-5.06;91.79
49451;BME280;35336;48.400;10.886;2024-01-11T00:17:59;97115.78;;;-5.07;91.86
49451;BME280;35336;48.400;10.886;2024-01-11T00:18:15;97119.28;;;-5.08;91.85
49451;BME280;35336;48.400;10.886;2024-01-11T00:18:30;97126.09;;;-5.06;91.94
49451;BME280;35336;48.400;10.886;2024-01-11T00:18:47;97116.47;;;-5.04;91.90
49451;BME280;35336;48.400;10.886;2024-01-11T00:19:02;97120.84;;;-5.04;91.68
49451;BME280;35336;48.400;10.886;2024-01-11T00:19:18;97115.69;;;-5.06;91.69
49451;BME280;35336;48.400;10.886;2024-01-11T00:19:33;97118.22;;;-5.04;91.75
49451;BME280;35336;48.400;10.886;2024-01-11T00:19:48;97114.78;;;-5.05;91.86
49451;BME280;35336;48.400;10.886;2024-01-11T00:20:07;97122.53;;;-5.03;91.72
49451;BME280;35336;48.400;10.886;2024-01-11T00:20:22;97116.47;;;-5.04;91.64
49451;BME280;35336;48.400;10.886;2024-01-11T00:20:37;97113.28;;;-5.09;91.63
49451;BME280;35336;48.400;10.886;2024-01-11T00:20:55;97120.66;;;-5.01;91.77
49451;BME280;35336;48.400;10.886;2024-01-11T00:21:10;97120.66;;;-5.01;91.88
49451;BME280;35336;48.400;10.886;2024-01-11T00:21:26;97116.22;;;-4.99;91.81
49451;BME280;35336;48.400;10.886;2024-01-11T00:21:41;97124.03;;;-4.99;91.73
49451;BME280;35336;48.400;10.886;2024-01-11T00:21:56;97112.03;;;-5.02;91.66
49451;BME280;35336;48.400;10.886;2024-01-11T00:22:16;97108.91;;;-5.08;91.38
49451;BME280;35336;48.400;10.886;2024-01-11T00:22:31;97098.00;;;-5.15;91.52
49451;BME280;35336;48.400;10.886;2024-01-11T00:22:46;97116.22;;;-4.99;91.73
49451;BME280;35336;48.400;10.886;2024-01-11T00:23:02;97116.22;;;-4.99;91.67
49451;BME280;35336;48.400;10.886;2024-01-11T00:23:17;97116.13;;;-4.98;91.74
49451;BME280;35336;48.400;10.886;2024-01-11T00:23:32;97118.72;;;-4.98;91.58
49451;BME280;35336;48.400;10.886;2024-01-11T00:23:49;97090.88;;;-5.12;91.70
49451;BME280;35336;48.400;10.886;2024-01-11T00:24:06;97105.22;;;-5.04;91.53
49451;BME280;35336;48.400;10.886;2024-01-11T00:24:24;97110.88;;;-4.96;91.57
49451;BME280;35336;48.400;10.886;2024-01-11T00:24:39;97111.03;;;-4.99;91.42
49451;BME280;35336;48.400;10.886;2024-01-11T00:24:55;97109.41;;;-5.02;91.18
49451;BME280;35336;48.400;10.886;2024-01-11T00:25:10;97114.53;;;-5.00;91.27
49451;BME280;35336;48.400;10.886;2024-01-11T00:25:27;97109.34;;;-5.00;91.28
49451;BME280;35336;48.400;10.886;2024-01-11T00:25:43;97098.72;;;-5.13;91.16
49451;BME280;35336;48.400;10.886;2024-01-11T00:25:58;97118.06;;;-5.01;91.07
49451;BME280;35336;48.400;10.886;2024-01-11T00:26:16;97115.41;;;-5.00;91.08
49451;BME280;35336;48.400;10.886;2024-01-11T00:26:31;97119.75;;;-5.00;91.08
49451;BME280;35336;48.400;10.886;2024-01-11T00:26:46;97120.59;;;-5.00;91.17
49451;BME280;35336;48.400;10.886;2024-01-11T00:27:02;97124.13;;;-5.01;91.06
49451;BME280;35336;48.400;10.886;2024-01-11T00:27:17;97102.09;;;-5.11;91.17
49451;BME280;35336;48.400;10.886;2024-01-11T00:27:32;97125.72;;;-4.98;91.08
49451;BME280;35336;48.400;10.886;2024-01-11T00:27:48;97120.41;;;-4.97;91.29
49451;BME280;35336;48.400;10.886;2024-01-11T00:28:03;97122.19;;;-4.97;91.29
49451;BME280;35336;48.400;10.886;2024-01-11T00:28:18;97121.09;;;-4.93;91.34
49451;BME280;35336;48.400;10.886;2024-01-11T00:28:34;97121.34;;;-4.98;91.41
49451;BME280;35336;48.400;10.886;2024-01-11T00:28:51;97121.09;;;-4.93;91.14
49451;BME280;35336;48.400;10.886;2024-01-11T00:29:07;97127.16;;;-4.92;91.20
49451;BME280;35336;48.400;10.886;2024-01-11T00:29:22;97100.19;;;-5.07;91.00
49451;BME280;35336;48.400;10.886;2024-01-11T00:29:38;97124.63;;;-4.94;91.14
49451;BME280;35336;48.400;10.886;2024-01-11T00:29:53;97124.63;;;-4.94;91.09
49451;BME280;35336;48.400;10.886;2024-01-11T00:30:11;97125.53;;;-4.95;90.93
49451;BME280;35336;48.400;10.886;2024-01-11T00:30:28;97102.88;;;-5.09;90.82
49451;BME280;35336;48.400;10.886;2024-01-11T00:30:44;97122.44;;;-5.02;90.79
49451;BME280;35336;48.400;10.886;2024-01-11T00:31:01;97119.91;;;-5.03;90.68
49451;BME280;35336;48.400;10.886;2024-01-11T00:31:16;97133.84;;;-5.04;90.99
49451;BME280;35336;48.400;10.886;2024-01-11T00:31:32;97133.06;;;-5.06;90.72
49451;BME280;35336;48.400;10.886;2024-01-11T00:31:47;97123.75;;;-5.11;91.11
49451;BME280;35336;48.400;10.886;2024-01-11T00:32:02;97128.97;;;-5.11;91.08
49451;BME280;35336;48.400;10.886;2024-01-11T00:32:20;97117.19;;;-5.18;91.35
49451;BME280;35336;48.400;10.886;2024-01-11T00:32:38;97131.47;;;-5.09;91.39
49451;BME280;35336;48.400;10.886;2024-01-11T00:32:53;97131.56;;;-5.11;91.57
49451;BME280;35336;48.400;10.886;2024-01-11T00:33:08;97131.63;;;-5.12;91.55
49451;BME280;35336;48.400;10.886;2024-01-11T00:33:26;97130.69;;;-5.11;91.62
49451;BME280;35336;48.400;10.886;2024-01-11T00:33:41;97131.56;;;-5.11;91.68
49451;BME280;35336;48.400;10.886;2024-01-11T00:33:57;97122.41;;;-5.18;91.70
49451;BME280;35336;48.400;10.886;2024-01-11T00:34:12;97128.00;;;-5.10;91.78
49451;BME280;35336;48.400;10.886;2024-01-11T00:34:27;97128.97;;;-5.11;91.85
49451;BME280;35336;48.400;10.886;2024-01-11T00:34:42;97137.50;;;-5.08;91.86
49451;BME280;35336;48.400;10.886;2024-01-11T00:34:58;97127.09;;;-5.08;91.79
49451;BME280;35336;48.400;10.886;2024-01-11T00:35:13;97130.47;;;-5.06;91.98
49451;BME280;35336;48.400;10.886;2024-01-11T00:35:28;97126.19;;;-5.07;91.90
49451;BME280;35336;48.400;10.886;2024-01-11T00:35:44;97126.09;;;-5.06;91.81
49451;BME280;35336;48.400;10.886;2024-01-11T00:35:59;97116.88;;;-5.12;91.73
49451;BME280;35336;48.400;10.886;2024-01-11T00:36:18;97127.78;;;-5.05;91.79
49451;BME280;35336;48.400;10.886;2024-01-11T00:36:41;97127.03;;;-5.07;91.86
49451;BME280;35336;48.400;10.886;2024-01-11T00:36:56;97125.19;;;-5.05;91.85
49451;BME280;35336;48.400;10.886;2024-01-11T00:37:12;97130.47;;;-5.06;91.73
49451;BME280;35336;48.400;10.886;2024-01-11T00:37:27;97127.88;;;-5.06;91.79
49451;BME280;35336;48.400;10.886;2024-01-11T00:37:42;97124.44;;;-5.07;91.80
49451;BME280;35336;48.400;10.886;2024-01-11T00:37:58;97106.78;;;-5.18;91.59
49451;BME280;35336;48.400;10.886;2024-01-11T00:38:13;97107.72;;;-5.19;91.66
49451;BME280;35336;48.400;10.886;2024-01-11T00:38:28;97118.22;;;-5.04;91.82
49451;BME280;35336;48.400;10.886;2024-01-11T00:38:43;97120.06;;;-5.06;91.94
49451;BME280;35336;48.400;10.886;2024-01-11T00:38:59;97124.13;;;-5.01;91.97
49451;BME280;35336;48.400;10.886;2024-01-11T00:39:14;97102.09;;;-5.11;91.90
49451;BME280;35336;48.400;10.886;2024-01-11T00:39:29;97120.59;;;-5.00;91.85
49451;BME280;35336;48.400;10.886;2024-01-11T00:39:45;97116.38;;;-5.02;91.56
49451;BME280;35336;48.400;10.886;2024-01-11T00:40:00;97118.91;;;-5.01;91.67
49451;BME280;35336;48.400;10.886;2024-01-11T00:40:15;97113.78;;;-5.02;91.70
49451;BME280;35336;48.400;10.886;2024-01-11T00:40:30;97107.06;;;-5.06;91.52
49451;BME280;35336;48.400;10.886;2024-01-11T00:40:46;97124.13;;;-5.01;91.53
49451;BME280;35336;48.400;10.886;2024-01-11T00:41:01;97107.97;;;-5.07;91.50
49451;BME280;35336;48.400;10.886;2024-01-11T00:41:16;97120.66;;;-5.01;91.46
49451;BME280;35336;48.400;10.886;2024-01-11T00:41:32;97123.09;;;-4.98;91.70
49451;BME280;35336;48.400;10.886;2024-01-11T00:41:49;97119.81;;;-5.02;91.71
49451;BME280;35336;48.400;10.886;2024-01-11T00:42:04;97118.81;;;-4.99;91.77
49451;BME280;35336;48.400;10.886;2024-01-11T00:42:20;97124.94;;;-5.00;91.57
49451;BME280;35336;48.400;10.886;2024-01-11T00:42:40;97123.94;;;-4.98;91.52
49451;BME280;35336;48.400;10.886;2024-01-11T00:42:58;97121.41;;;-4.99;91.44
49451;BME280;35336;48.400;10.886;2024-01-11T00:43:13;97123.19;;;-5.00;91.41
49451;BME280;35336;48.400;10.886;2024-01-11T00:43:30;97124.94;;;-5.00;91.32
49451;BME280;35336;48.400;10.886;2024-01-11T00:43:48;97125.81;;;-5.00;91.49
49451;BME280;35336;48.400;10.886;2024-01-11T00:44:03;97121.41;;;-4.99;91.48
49451;BME280;35336;48.400;10.886;2024-01-11T00:44:18;97123.09;;;-4.98;91.65
49451;BME280;35336;48.400;10.886;2024-01-11T00:44:34;97124.03;;;-4.99;91.67
49451;BME280;35336;48.400;10.886;2024-01-11T00:44:51;97119.59;;;-4.97;91.56
49451;BME280;35336;48.400;10.886;2024-01-11T00:45:07;97126.47;;;-4.96;91.58
49451;BME280;35336;48.400;10.886;2024-01-11T00:45:22;97130.00;;;-4.97;91.62
49451;BME280;35336;48.400;10.886;2024-01-11T00:45:37;97115.53;;;-5.03;91.54
49451;BME280;35336;48.400;10.886;2024-01-11T00:45:53;97120.41;;;-4.97;91.69
49451;BME280;35336;48.400;10.886;2024-01-11T00:46:08;97120.50;;;-4.98;91.57
49451;BME280;35336;48.400;10.886;2024-01-11T00:46:23;97120.59;;;-5.00;91.45
49451;BME280;35336;48.400;10.886;2024-01-11T00:46:41;97116.38;;;-5.02;91.33
49451;BME280;35336;48.400;10.886;2024-01-11T00:46:58;97122.44;;;-5.02;91.43
49451;BME280;35336;48.400;10.886;2024-01-11T00:47:14;97109.66;;;-5.06;91.61
49451;BME280;35336;48.400;10.886;2024-01-11T00:47:29;97132.75;;;-5.00;91.69
49451;BME280;35336;48.400;10.886;2024-01-11T00:47:44;97118.81;;;-4.99;91.76
49451;BME280;35336;48.400;10.886;2024-01-11T00:48:00;97125.84;;;-5.01;91.80
49451;BME280;35336;48.400;10.886;2024-01-11T00:48:15;97116.63;;;-5.07;91.75
49451;BME280;35336;48.400;10.886;2024-01-11T00:48:30;97132.75;;;-5.00;91.69
49451;BME280;35336;48.400;10.886;2024-01-11T00:48:45;97121.50;;;-5.01;91.70
49451;BME280;35336;48.400;10.886;2024-01-11T00:49:01;97124.94;;;-5.00;91.88
49451;BME280;35336;48.400;10.886;2024-01-11T00:49:16;97119.75;;;-5.00;91.92
49451;BME280;35336;48.400;10.886;2024-01-11T00:49:31;97130.00;;;-4.97;91.98
49451;BME280;35336;48.400;10.886;2024-01-11T00:49:47;97119.75;;;-5.00;92.00
49451;BME280;35336;48.400;10.886;2024-01-11T00:50:02;97103.78;;;-5.10;92.05
49451;BME280;35336;48.400;10.886;2024-01-11T00:50:17;97129.06;;;-4.96;91.76
49451;BME280;35336;48.400;10.886;2024-01-11T00:50:32;97120.75;;;-5.03;91.77
49451;BME280;35336;48.400;10.886;2024-01-11T00:50:48;97124.94;;;-5.00;91.63
49451;BME280;35336;48.400;10.886;2024-01-11T00:51:04;97124.94;;;-5.00;91.62
49451;BME280;35336;48.400;10.886;2024-01-11T00:51:19;97129.22;;;-4.99;91.53
49451;BME280;35336;48.400;10.886;2024-01-11T00:51:35;97123.09;;;-4.98;91.74
49451;BME280;35336;48.400;10.886;2024-01-11T00:51:50;97129.13;;;-4.98;91.59
49451;BME280;35336;48.400;10.886;2024-01-11T00:52:05;97105.63;;;-5.12;91.81
49451;BME280;35336;48.400;10.886;2024-01-11T00:52:23;97128.31;;;-4.98;91.67
49451;BME280;35336;48.400;10.886;2024-01-11T00:52:38;97132.75;;;-5.00;91.52
49451;BME280;35336;48.400;10.886;2024-01-11T00:52:53;97124.13;;;-5.01;91.77
49451;BME280;35336;48.400;10.886;2024-01-11T00:53:08;97117.63;;;-5.10;91.81
49451;BME280;35336;48.400;10.886;2024-01-11T00:53:24;97120.84;;;-5.04;91.81
49451;BME280;35336;48.400;10.886;2024-01-11T00:53:41;97129.22;;;-4.99;91.88
49451;BME280;35336;48.400;10.886;2024-01-11T00:53:56;97137.03;;;-4.99;91.77
49451;BME280;35336;48.400;10.886;2024-01-11T00:54:14;97121.66;;;-5.04;91.81
49451;BME280;35336;48.400;10.886;2024-01-11T00:54:29;97127.31;;;-4.96;91.71
49451;BME280;35336;48.400;10.886;2024-01-11T00:54:47;97129.91;;;-4.96;91.67
49451;BME280;35336;48.400;10.886;2024-01-11T00:55:06;97121.28;;;-4.96;91.67
49451;BME280;35336;48.400;10.886;2024-01-11T00:55:23;97120.59;;;-5.00;91.58
49451;BME280;35336;48.400;10.886;2024-01-11T00:55:39;97129.91;;;-4.96;91.52
49451;BME280;35336;48.400;10.886;2024-01-11T00:55:54;97126.47;;;-4.96;91.46
49451;BME280;35336;48.400;10.886;2024-01-11T00:56:16;97134.09;;;-4.93;91.67
49451;BME280;35336;48.400;10.886;2024-01-11T00:56:34;97134.09;;;-4.93;91.35
49451;BME280;35336;48.400;10.886;2024-01-11T00:56:49;97136.78;;;-4.95;91.27
49451;BME280;35336;48.400;10.886;2024-01-11T00:57:05;97136.88;;;-4.96;91.08
49451;BME280;35336;48.400;10.886;2024-01-11T00:57:22;97134.44;;;-4.99;91.10
49451;BME280;35336;48.400;10.886;2024-01-11T00:57:37;97140.41;;;-4.97;91.25
49451;BME280;35336;48.400;10.886;2024-01-11T00:57:53;97139.47;;;-4.96;91.15
49451;BME280;35336;48.400;10.886;2024-01-11T00:58:08;97136.88;;;-4.96;91.39
49451;BME280;35336;48.400;10.886;2024-01-11T00:58:26;97134.09;;;-4.93;91.54
49451;BME280;35336;48.400;10.886;2024-01-11T00:58:41;97138.38;;;-4.92;91.63
49451;BME280;35336;48.400;10.886;2024-01-11T00:58:56;97138.38;;;-4.92;91.44
49451;BME280;35336;48.400;10.886;2024-01-11T00:59:12;97135.88;;;-4.93;91.28
49451;BME280;35336;48.400;10.886;2024-01-11T00:59:27;97142.91;;;-4.96;91.13
49451;BME280;35336;48.400;10.886;2024-01-11T00:59:42;97144.84;;;-4.99;91.10
49451;BME280;35336;48.400;10.886;2024-01-11T00:59:57;97140.53;;;-5.00;91.20
49451;BME280;35336;48.400;10.886;2024-01-11T01:00:15;97142.22;;;-4.99;91.34
49451;BME280;35336;48.400;10.886;2024-01-11T01:00:30;97141.47;;;-5.01;91.48
49451;BME280;35336;48.400;10.886;2024-01-11T01:00:45;97144.75;;;-4.98;91.54
49451;BME280;35336;48.400;10.886;2024-01-11T01:01:01;97129.22;;;-4.99;91.56
49451;BME280;35336;48.400;10.886;2024-01-11T01:01:16;97141.31;;;-4.98;91.38
49451;BME280;35336;48.400;10.886;2024-01-11T01:01:34;97137.63;;;-4.94;91.55
49451;BME280;35336;48.400;10.886;2024-01-11T01:01:49;97150.47;;;-4.91;91.61
49451;BME280;35336;48.400;10.886;2024-01-11T01:02:07;97136.63;;;-4.91;91.62
49451;BME280;35336;48.400;10.886;2024-01-11T01:02:22;97129.13;;;-4.98;91.46
49451;BME280;35336;48.400;10.886;2024-01-11T01:02:38;97146.19;;;-4.92;91.38
49451;BME280;35336;48.400;10.886;2024-01-11T01:02:55;97142.66;;;-4.91;91.40
49451;BME280;35336;48.400;10.886;2024-01-11T01:03:11;97147.09;;;-4.93;91.09
49451;BME280;35336;48.400;10.886;2024-01-11T01:03:26;97135.94;;;-4.95;91.16
49451;BME280;35336;48.400;10.886;2024-01-11T01:03:41;97148.78;;;-4.92;91.16
49451;BME280;35336;48.400;10.886;2024-01-11T01:03:59;97140.16;;;-4.92;91.05
49451;BME280;35336;48.400;10.886;2024-01-11T01:04:14;97149.63;;;-4.91;91.16
49451;BME280;35336;48.400;10.886;2024-01-11T01:04:29;97141.91;;;-4.93;90.95
49451;BME280;35336;48.400;10.886;2024-01-11T01:04:45;97146.19;;;-4.92;90.85
49451;BME280;35336;48.400;10.886;2024-01-11T01:05:00;97147.03;;;-4.91;91.05
49451;BME280;35336;48.400;10.886;2024-01-11T01:05:15;97135.19;;;-4.97;90.92
49451;BME280;35336;48.400;10.886;2024-01-11T01:05:30;97127.53;;;-5.00;90.83
49451;BME280;35336;48.400;10.886;2024-01-11T01:05:46;97139.31;;;-4.93;90.88
49451;BME280;35336;48.400;10.886;2024-01-11T01:06:02;97140.41;;;-4.97;91.01
49451;BME280;35336;48.400;10.886;2024-01-11T01:06:17;97136.69;;;-4.93;90.93
49451;BME280;35336;48.400;10.886;2024-01-11T01:06:32;97136.13;;;-4.98;90.75
49451;BME280;35336;48.400;10.886;2024-01-11T01:06:48;97139.53;;;-4.98;90.67
49451;BME280;35336;48.400;10.886;2024-01-11T01:07:03;97127.88;;;-5.06;90.79
49451;BME280;35336;48.400;10.886;2024-01-11T01:07:18;97126.09;;;-5.06;90.96
49451;BME280;35336;48.400;10.886;2024-01-11T01:07:34;97146.34;;;-4.95;90.97
49451;BME280;35336;48.400;10.886;2024-01-11T01:07:49;97142.91;;;-4.96;91.04
49451;BME280;35336;48.400;10.886;2024-01-11T01:08:07;97149.88;;;-4.96;91.01
49451;BME280;35336;48.400;10.886;2024-01-11T01:08:22;97131.97;;;-5.02;91.03
49451;BME280;35336;48.400;10.886;2024-01-11T01:08:37;97126.41;;;-5.12;90.98
49451;BME280;35336;48.400;10.886;2024-01-11T01:08:55;97149.22;;;-5.00;90.68
49451;BME280;35336;48.400;10.886;2024-01-11T01:09:11;97123.91;;;-5.14;90.70
49451;BME280;35336;48.400;10.886;2024-01-11T01:09:28;97143.25;;;-5.02;90.94
49451;BME280;35336;48.400;10.886;2024-01-11T01:09:46;97138.88;;;-5.01;91.02
49451;BME280;35336;48.400;10.886;2024-01-11T01:10:01;97137.44;;;-5.07;91.11
49451;BME280;35336;48.400;10.886;2024-01-11T01:10:17;97145.94;;;-5.03;91.16
49451;BME280;35336;48.400;10.886;2024-01-11T01:10:32;97144.06;;;-5.01;91.16
49451;BME280;35336;48.400;10.886;2024-01-11T01:10:52;97136.44;;;-5.04;91.05
49451;BME280;35336;48.400;10.886;2024-01-11T01:11:09;97149.44;;;-5.04;91.10
49451;BME280;35336;48.400;10.886;2024-01-11T01:11:25;97143.38;;;-5.05;91.02
49451;BME280;35336;48.400;10.886;2024-01-11T01:11:40;97147.56;;;-5.02;91.22
49451;BME280;35336;48.400;10.886;2024-01-11T01:11:57;97145.94;;;-5.03;91.28
49451;BME280;35336;48.400;10.886;2024-01-11T01:12:15;97150.13;;;-5.01;91.42
49451;BME280;35336;48.400;10.886;2024-01-11T01:12:30;97144.06;;;-5.01;91.19
49451;BME280;35336;48.400;10.886;2024-01-11T01:12:46;97146.53;;;-4.98;91.21
49451;BME280;35336;48.400;10.886;2024-01-11T01:13:04;97143.00;;;-4.97;91.33
49451;BME280;35336;48.400;10.886;2024-01-11T01:13:19;97147.28;;;-4.96;91.34
49451;BME280;35336;48.400;10.886;2024-01-11T01:13:34;97142.09;;;-4.96;91.21
49451;BME280;35336;48.400;10.886;2024-01-11T01:13:50;97140.41;;;-4.97;91.11
49451;BME280;35336;48.400;10.886;2024-01-11T01:14:05;97141.22;;;-4.97;90.94
49451;BME280;35336;48.400;10.886;2024-01-11T01:14:20;97129.69;;;-5.08;90.97
49451;BME280;35336;48.400;10.886;2024-01-11T01:14:38;97140.41;;;-4.97;91.23
49451;BME280;35336;48.400;10.886;2024-01-11T01:14:53;97133.66;;;-5.01;91.11
49451;BME280;35336;48.400;10.886;2024-01-11T01:15:11;97148.94;;;-4.95;90.95
49451;BME280;35336;48.400;10.886;2024-01-11T01:15:26;97139.47;;;-4.96;90.92
49451;BME280;35336;48.400;10.886;2024-01-11T01:15:44;97147.44;;;-4.99;90.86
49451;BME280;35336;48.400;10.886;2024-01-11T01:15:59;97148.19;;;-4.97;91.00
49451;BME280;35336;48.400;10.886;2024-01-11T01:16:14;97142.91;;;-4.96;91.20
49451;BME280;35336;48.400;10.886;2024-01-11T01:16:30;97142.09;;;-4.96;91.12
49451;BME280;35336;48.400;10.886;2024-01-11T01:16:45;97136.88;;;-4.96;91.20
49451;BME280;35336;48.400;10.886;2024-01-11T01:17:00;97148.94;;;-4.95;91.27
49451;BME280;35336;48.400;10.886;2024-01-11T01:17:18;97144.59;;;-4.95;91.20
49451;BME280;35336;48.400;10.886;2024-01-11T01:17:33;97142.81;;;-4.94;91.37
49451;BME280;35336;48.400;10.886;2024-01-11T01:17:48;97142.66;;;-4.91;91.34
49451;BME280;35336;48.400;10.886;2024-01-11T01:18:06;97141.75;;;-4.90;91.27
49451;BME280;35336;48.400;10.886;2024-01-11T01:18:21;97138.28;;;-4.90;91.16
49451;BME280;35336;48.400;10.886;2024-01-11T01:18:39;97148.69;;;-4.90;91.06
49451;BME280;35336;48.400;10.886;2024-01-11T01:18:54;97147.88;;;-4.91;91.24
49451;BME280;35336;48.400;10.886;2024-01-11T01:19:09;97146.28;;;-4.93;91.00
49451;BME280;35336;48.400;10.886;2024-01-11T01:19:27;97141.22;;;-4.97;90.83
49451;BME280;35336;48.400;10.886;2024-01-11T01:19:44;97149.03;;;-4.97;90.85
49451;BME280;35336;48.400;10.886;2024-01-11T01:19:59;97152.50;;;-4.96;90.79
49451;BME280;35336;48.400;10.886;2024-01-11T01:20:15;97127.97;;;-5.08;90.96
49451;BME280;35336;48.400;10.886;2024-01-11T01:20:30;97153.41;;;-4.97;91.00
49451;BME280;35336;48.400;10.886;2024-01-11T01:20:48;97132.38;;;-5.10;90.90
49451;BME280;35336;48.400;10.886;2024-01-11T01:21:03;97148.19;;;-4.97;91.13
49451;BME280;35336;48.400;10.886;2024-01-11T01:21:18;97124.72;;;-5.13;90.98
49451;BME280;35336;48.400;10.886;2024-01-11T01:21:34;97149.13;;;-4.98;90.89
49451;BME280;35336;48.400;10.886;2024-01-11T01:21:49;97152.63;;;-4.99;90.98
49451;BME280;35336;48.400;10.886;2024-01-11T01:22:04;97129.09;;;-5.14;90.97
49451;BME280;35336;48.400;10.886;2024-01-11T01:22:19;97131.84;;;-5.17;90.98
49451;BME280;35336;48.400;10.886;2024-01-11T01:22:35;97158.94;;;-5.03;91.07
49451;BME280;35336;48.400;10.886;2024-01-11T01:22:50;97121.63;;;-5.20;90.88
49451;BME280;35336;48.400;10.886;2024-01-11T01:23:05;97149.25;;;-5.01;91.01